Vicksburg, MS

6:32 PM CDT on August 31, 2016 (GMT -0500)
Savannah Hills | | Change Station

Elev 250 ft 32.33 °N, 90.85 °W | Updated 4 minutes ago

Clear
Clear
93.6 °F
Feels Like 108 °F
N
0.0
Wind Variable Wind from East

Today
High -- | Low -- °F
--% Chance of Precip.
Yesterday
High -- | Low -- °F
Precip. -- in
Pressure 29.84 in
Visibility 10.0 miles
Clouds Clear
Heat Index 108 °F
Dew Point 77 °F
Humidity 58%
Rainfall 0.00 in
Snow Depth Not available.
6:38 AM 7:28 PM
Waning Crescent, 0% visible
METAR KVKS 312315Z AUTO 03007KT 10SM CLR 33/21 A2984 RMK A01
Pressure 29.84 in
Visibility 10.0 miles
Clouds Clear
Heat Index 108 °F
Dew Point 77 °F
Humidity 58%
Rainfall 0.00 in
Snow Depth Not available.
6:38 AM 7:28 PM
Waning Crescent, 0% visible
METAR KVKS 312315Z AUTO 03007KT 10SM CLR 33/21 A2984 RMK A01

10-Day Weather Forecast

Almanac

Astronomy

Aug. 31, 2016 Rise Set
Actual Time
Civil Twilight
Nautical Twilight
Astronomical Twilight
Moon
Length of Visible Light
Length of Day
Tomorrow will be .
, % of the Moon is Illuminated

Today's Extremes

State Highs State Lows

Community

WunderPhotos

Upload Photos

1,936,215 photos uploaded!

WunderBlog® & News

Nearby

Air Quality

  Air Quality AQ Index Pollutant
Not available.

Snow Depth

Station Depth Elevation

Earthquake Activity

City Distance Mag. Time & Date
Minimum magnitude displayed is 2.5.

Coastal Water Temperatures

Place Temperature

Stations

Nearby Weather Stations

Station Location Temp. Windchill Dew Point Humidity Wind Precip. Elev Updated Type
                   

Watches & Warnings

There are currently no watches in effect.